Airfield :
LOGIN :

Register | Disclaimer

   EN    FR    IT 

 










Legend :    VFR   Marginal VFR   IFR   Intensive IFR   Very Intensive IFR
Visi :
Ceiling :
>= 8 km
>= 3000ft
5 to 8 km
1000 to 3000 ft
1500m to 5 km
500 to 1000 ft
800 to 1500m
200 to 500 ft
< 800m
< 200 ft
Symbols :   Thunderstorms  Fog  Heavy snow  Heavy precipitations  Wind > 20 kt
SIGMETs :     Misc.  Thunderstorms  Icing  Turbulence  Mountain Waves  Volcanic Ashes






- Airport Elevation : 436 ft
- IATA code : ANG


LFBU - Angoulême Brie Champniers

CURRENT METAR :
  • 301700Z AUTO 03008KT CAVOK 04/M01 Q1025 NOSIG

EXPIRED METARs :
  • 301630Z AUTO 02008KT CAVOK 05/M01 Q1025 NOSIG
  • 301600Z AUTO 03008KT CAVOK 06/M01 Q1025 NOSIG
  • 301530Z AUTO 03009KT CAVOK 06/M01 Q1025 NOSIG
  • 301500Z AUTO 02011KT CAVOK 07/M01 Q1025 NOSIG
  • 301430Z AUTO 02010KT CAVOK 08/M00 Q1025 NOSIG

TAF TAF LFBU
Valid from the 30 at 12:00 until the 01 at 12:00 UTC


301100Z 3012/0112 03010KT CAVOK
BECMG 3022/3024 VRB02KT
BECMG 0103/0105 BKN020
TEMPO 0105/0109 3000 RA OVC004
PROB30
TEMPO 0109/0111 OVC002
BECMG 0111/0112 01010KT



MET'MAP, your aeronautical weather chart ! - Copyright ORBIFLY December 2007 - Disclaimer

ORBIFLY MET'MAP TEAM :

Programming & Development : Alexandra Zaïnal
Concept & original design : Baudouin d'Aumeries
Assistance for programming : Marc-Olivier Méhu
Technical & hardware support : Manuel Goepfert

Contact : metmap@orbifly.com




SOURCES & CREDITS :

   NOAA